Dracut, MA (01826)

5:28 AM EST on December 25, 2014 (GMT -0500)
Navy Yard | Change Station
CLOSE
Current Station
Personal Weather Station
Location: Dracut, MA
Elevation: 89 ft
Nearby Weather Stations

Elev 89 ft 42.67 °N, 71.32 °W | Updated 12 seconds ago

Overcast
Overcast
42.4 °F
Feels Like 42 °F
N
0.7
Wind Variable Wind from NW
Gusts 2.2 mph

Today
High -- | Low -- °F
--% Chance of Precip.
Yesterday
High -- | Low -- °F
Precip. -- in
7:13 AM 4:16 PM
Waxing Crescent, 15% visible
Pressure 29.47 in
Visibility 2.5 miles
Clouds Overcast 200 ft
Windchill 42 °F
Dew Point 42 °F
Humidity 99%
Rainfall 0.00 in
Snow Depth Not available.
UV 0 out of 12
Pollen .10 out of 12
Air Quality Not available.
Flu Activity Not available.
SPECI KLWM 251015Z AUTO 00000KT 2 1/2SM BR OVC002 06/06 A2947 RMK AO2 T00610056

More Conditions Fewer Conditions

Pressure 29.47 in
Visibility 2.5 miles
Clouds Overcast 200 ft
Windchill 42 °F
Dew Point 42 °F
Humidity 99%
Rainfall 0.00 in
Snow Depth Not available.
UV 0 out of 12
Pollen .10 out of 12
Air Quality Not available.
Flu Activity Not available.
SPECI KLWM 251015Z AUTO 00000KT 2 1/2SM BR OVC002 06/06 A2947 RMK AO2 T00610056

More Conditions Fewer Conditions

10-Day Weather Forecast

Almanac

Astronomy

Dec. 25, 2014 Rise Set
Actual Time
Civil Twilight
Nautical Twilight
Astronomical Twilight
Moon
Length of Visible Light
Length of Day
Tomorrow will be .
, % of the Moon is Illuminated

Today's Extremes

State Highs State Lows

Community

WunderPhotos

Upload Photos

1,780,254 photos uploaded!

WunderBlogs® & News

Nearby

Air Quality

  Air Quality AQ Index Pollutant
Not available.

Snow Depth

Station Depth Elevation

Earthquake Activity

City Distance Mag. Time & Date
Minimum magnitude displayed is 2.5.

Coastal Water Temperatures

Place Temperature

Nearby Weather Stations